Flight Number: EUR3071 Duration: 12:00
Departure: Rio de Janeiro (SBGL) at 18:30 Distance: 4985 Nm
Arrival: Gatwick Airport (EGKK) at 06:30 Equipment: A340

Weather Information
Galeao, Brazil (SBGL) 22-49S 043-15W 42M May 22, 2018 - 03:00 PM EDT / 2018.05.22 1900 UTC
Wind: from the ESE (120 degrees) at 6 MPH (5 KT):0
Visibility: greater than 7 mile(s):0 Temperature: 75 F (24 C) Dew Point: 59 F (15 C) Relative Humidity: 57% Pressure (altimeter): 30.00 in. Hg (1016 hPa)
ob: SBGL 221900Z 12005KT CAVOK 24/15 Q1016 cycle: 19
Sunrise: 09:24 Sunset: 20:14 (UTC)

London / Gatwick Airport, United Kingdom (EGKK) 51-09N 000-11W 0M May 22, 2018 - 03:20 PM EDT / 2018.05.22 1920 UTC
Wind: from the N (010 degrees) at 12 MPH (10 KT):0
Visibility: greater than 7 mile(s):0 Temperature: 64 F (18 C) Dew Point: 50 F (10 C) Relative Humidity: 59% Pressure (altimeter): 30.06 in. Hg (1018 hPa)
ob: EGKK 221920Z 01010KT CAVOK 18/10 Q1018 cycle: 19
Sunrise: 04:04 Sunset: 19:50 (UTC)

TAF:2018/05/22 18:15 TAF EGKK 221701Z 2218/2324 01012KT 9999 FEW045 PROB30 TEMPO 2301/2308 8000 BKN009 PROB30 TEMPO 2316/2324 6000 SHRA

Previous Pireps for this route
Date Aircraft Flight time Fuel used Landing rate On time
2015-06-23B74710.31283502-12Charter
2015-06-26B74711.46301897-93Charter
(pireps marked green are flown by you)

Route map